sensor_id;sensor_type;location;lat;lon;timestamp;noise_LAeq;noise_LA_min;noise_LA_max;noise_LA01;noise_LA95
71030;Laerm;63723;51.436;5.976;2023-04-03T00:00:02;60.55;58.58;61.87;;
71030;Laerm;63723;51.436;5.976;2023-04-03T00:00:13;60.45;59.32;61.44;;
71030;Laerm;63723;51.436;5.976;2023-04-03T00:00:23;60.69;59.04;62.62;;
71030;Laerm;63723;51.436;5.976;2023-04-03T00:00:33;60.88;59.40;62.46;;
71030;Laerm;63723;51.436;5.976;2023-04-03T00:00:44;59.91;57.36;61.50;;
71030;Laerm;63723;51.436;5.976;2023-04-03T00:00:55;60.47;56.47;61.48;;
71030;Laerm;63723;51.436;5.976;2023-04-03T00:01:05;60.54;59.21;62.11;;
71030;Laerm;63723;51.436;5.976;2023-04-03T00:01:16;59.92;58.31;61.12;;
71030;Laerm;63723;51.436;5.976;2023-04-03T00:01:27;60.17;58.82;61.16;;
71030;Laerm;63723;51.436;5.976;2023-04-03T00:01:38;60.34;58.86;61.38;;
71030;Laerm;63723;51.436;5.976;2023-04-03T00:01:48;60.61;58.73;61.75;;
71030;Laerm;63723;51.436;5.976;2023-04-03T00:01:58;60.44;55.45;61.63;;
71030;Laerm;63723;51.436;5.976;2023-04-03T00:02:08;60.24;57.49;62.09;;
71030;Laerm;63723;51.436;5.976;2023-04-03T00:02:19;60.42;56.15;61.47;;
71030;Laerm;63723;51.436;5.976;2023-04-03T00:02:29;60.31;58.95;61.33;;
71030;Laerm;63723;51.436;5.976;2023-04-03T00:02:39;60.56;59.07;62.19;;
71030;Laerm;63723;51.436;5.976;2023-04-03T00:02:50;60.43;58.87;62.49;;
71030;Laerm;63723;51.436;5.976;2023-04-03T00:03:01;61.63;58.98;62.50;;
71030;Laerm;63723;51.436;5.976;2023-04-03T00:03:11;61.27;56.48;62.76;;
71030;Laerm;63723;51.436;5.976;2023-04-03T00:03:21;61.61;60.29;62.87;;
71030;Laerm;63723;51.436;5.976;2023-04-03T00:03:31;61.73;60.68;62.80;;
71030;Laerm;63723;51.436;5.976;2023-04-03T00:03:42;59.71;54.90;62.20;;
71030;Laerm;63723;51.436;5.976;2023-04-03T00:03:52;59.34;57.57;60.97;;
71030;Laerm;63723;51.436;5.976;2023-04-03T00:04:03;60.78;58.88;62.64;;
71030;Laerm;63723;51.436;5.976;2023-04-03T00:04:13;60.79;59.73;61.73;;
71030;Laerm;63723;51.436;5.976;2023-04-03T00:04:23;60.50;58.03;61.45;;
71030;Laerm;63723;51.436;5.976;2023-04-03T00:04:34;59.09;57.21;60.42;;
71030;Laerm;63723;51.436;5.976;2023-04-03T00:04:44;60.45;57.65;61.50;;
71030;Laerm;63723;51.436;5.976;2023-04-03T00:04:55;60.69;59.73;61.77;;
71030;Laerm;63723;51.436;5.976;2023-04-03T00:05:05;60.47;57.43;61.74;;
71030;Laerm;63723;51.436;5.976;2023-04-03T00:05:15;59.37;57.02;60.84;;
71030;Laerm;63723;51.436;5.976;2023-04-03T00:05:26;59.51;57.74;61.54;;
71030;Laerm;63723;51.436;5.976;2023-04-03T00:05:36;59.47;57.29;61.88;;
71030;Laerm;63723;51.436;5.976;2023-04-03T00:05:46;60.13;57.49;61.83;;
71030;Laerm;63723;51.436;5.976;2023-04-03T00:05:57;60.78;59.49;62.12;;
71030;Laerm;63723;51.436;5.976;2023-04-03T00:06:07;61.07;59.75;61.96;;
71030;Laerm;63723;51.436;5.976;2023-04-03T00:06:18;59.36;57.45;62.05;;
71030;Laerm;63723;51.436;5.976;2023-04-03T00:06:29;60.66;56.93;61.66;;
71030;Laerm;63723;51.436;5.976;2023-04-03T00:06:39;60.62;58.32;61.83;;
71030;Laerm;63723;51.436;5.976;2023-04-03T00:06:50;60.70;59.48;62.23;;
71030;Laerm;63723;51.436;5.976;2023-04-03T00:07:00;59.68;56.77;61.32;;
71030;Laerm;63723;51.436;5.976;2023-04-03T00:07:10;60.16;57.64;61.49;;
71030;Laerm;63723;51.436;5.976;2023-04-03T00:07:22;58.67;56.75;60.21;;
71030;Laerm;63723;51.436;5.976;2023-04-03T00:07:32;59.02;57.12;61.50;;
71030;Laerm;63723;51.436;5.976;2023-04-03T00:07:42;59.04;57.04;61.76;;
71030;Laerm;63723;51.436;5.976;2023-04-03T00:07:53;60.24;56.53;62.29;;
71030;Laerm;63723;51.436;5.976;2023-04-03T00:08:03;60.32;57.50;61.89;;
71030;Laerm;63723;51.436;5.976;2023-04-03T00:08:14;59.04;57.01;61.86;;
71030;Laerm;63723;51.436;5.976;2023-04-03T00:08:25;60.44;57.52;61.83;;
71030;Laerm;63723;51.436;5.976;2023-04-03T00:08:35;61.02;59.97;62.51;;
71030;Laerm;63723;51.436;5.976;2023-04-03T00:08:45;60.92;59.78;61.85;;
71030;Laerm;63723;51.436;5.976;2023-04-03T00:08:56;61.02;59.47;61.90;;
71030;Laerm;63723;51.436;5.976;2023-04-03T00:09:06;59.72;57.20;62.28;;
71030;Laerm;63723;51.436;5.976;2023-04-03T00:09:16;58.86;56.56;60.22;;
71030;Laerm;63723;51.436;5.976;2023-04-03T00:09:26;60.41;57.63;62.00;;
71030;Laerm;63723;51.436;5.976;2023-04-03T00:09:37;60.93;58.13;62.09;;
71030;Laerm;63723;51.436;5.976;2023-04-03T00:09:47;58.98;56.40;61.45;;
71030;Laerm;63723;51.436;5.976;2023-04-03T00:09:57;60.80;57.45;62.27;;
71030;Laerm;63723;51.436;5.976;2023-04-03T00:10:08;60.90;59.60;62.03;;
71030;Laerm;63723;51.436;5.976;2023-04-03T00:10:19;60.33;57.14;61.96;;
71030;Laerm;63723;51.436;5.976;2023-04-03T00:10:29;60.58;57.16;61.78;;
71030;Laerm;63723;51.436;5.976;2023-04-03T00:10:40;60.54;56.51;61.69;;
71030;Laerm;63723;51.436;5.976;2023-04-03T00:10:50;60.50;59.22;61.64;;
71030;Laerm;63723;51.436;5.976;2023-04-03T00:11:01;59.41;56.52;61.50;;
71030;Laerm;63723;51.436;5.976;2023-04-03T00:11:11;59.35;56.04;61.64;;
71030;Laerm;63723;51.436;5.976;2023-04-03T00:11:21;60.66;57.56;61.99;;
71030;Laerm;63723;51.436;5.976;2023-04-03T00:11:31;59.52;57.29;61.53;;
71030;Laerm;63723;51.436;5.976;2023-04-03T00:11:42;59.71;57.09;61.89;;
71030;Laerm;63723;51.436;5.976;2023-04-03T00:11:52;59.05;56.91;62.06;;
71030;Laerm;63723;51.436;5.976;2023-04-03T00:12:02;59.28;57.43;61.73;;
71030;Laerm;63723;51.436;5.976;2023-04-03T00:12:13;59.43;57.14;61.36;;
71030;Laerm;63723;51.436;5.976;2023-04-03T00:12:23;60.94;56.77;62.39;;
71030;Laerm;63723;51.436;5.976;2023-04-03T00:12:33;60.52;57.50;62.09;;
71030;Laerm;63723;51.436;5.976;2023-04-03T00:12:43;59.95;57.30;61.87;;
71030;Laerm;63723;51.436;5.976;2023-04-03T00:12:54;59.87;57.51;62.38;;
71030;Laerm;63723;51.436;5.976;2023-04-03T00:13:04;61.48;58.78;62.72;;
71030;Laerm;63723;51.436;5.976;2023-04-03T00:13:15;60.73;58.10;62.11;;
71030;Laerm;63723;51.436;5.976;2023-04-03T00:13:25;60.09;58.01;61.79;;
71030;Laerm;63723;51.436;5.976;2023-04-03T00:13:36;61.34;60.12;62.58;;
71030;Laerm;63723;51.436;5.976;2023-04-03T00:13:47;60.92;59.81;61.88;;
71030;Laerm;63723;51.436;5.976;2023-04-03T00:13:57;60.76;59.54;61.70;;
71030;Laerm;63723;51.436;5.976;2023-04-03T00:14:07;60.11;56.25;61.67;;
71030;Laerm;63723;51.436;5.976;2023-04-03T00:14:17;59.74;58.23;61.11;;
71030;Laerm;63723;51.436;5.976;2023-04-03T00:14:28;60.71;59.42;61.97;;
71030;Laerm;63723;51.436;5.976;2023-04-03T00:14:38;59.98;58.02;62.21;;
71030;Laerm;63723;51.436;5.976;2023-04-03T00:14:48;60.08;57.95;61.52;;
71030;Laerm;63723;51.436;5.976;2023-04-03T00:14:58;59.49;57.78;61.85;;
71030;Laerm;63723;51.436;5.976;2023-04-03T00:15:09;59.40;57.71;60.59;;
71030;Laerm;63723;51.436;5.976;2023-04-03T00:15:19;60.53;58.28;61.67;;
71030;Laerm;63723;51.436;5.976;2023-04-03T00:15:29;60.69;57.54;61.69;;
71030;Laerm;63723;51.436;5.976;2023-04-03T00:15:40;60.91;59.17;62.42;;
71030;Laerm;63723;51.436;5.976;2023-04-03T00:15:51;60.77;59.65;61.90;;
71030;Laerm;63723;51.436;5.976;2023-04-03T00:16:01;59.85;57.24;61.55;;
71030;Laerm;63723;51.436;5.976;2023-04-03T00:16:13;60.01;57.62;62.07;;
71030;Laerm;63723;51.436;5.976;2023-04-03T00:16:23;58.51;55.29;60.24;;
71030;Laerm;63723;51.436;5.976;2023-04-03T00:16:33;60.04;56.58;61.33;;
71030;Laerm;63723;51.436;5.976;2023-04-03T00:16:44;60.78;57.61;62.12;;
71030;Laerm;63723;51.436;5.976;2023-04-03T00:16:54;60.70;56.84;62.04;;
71030;Laerm;63723;51.436;5.976;2023-04-03T00:17:04;60.84;57.30;62.31;;
71030;Laerm;63723;51.436;5.976;2023-04-03T00:17:14;59.41;57.49;61.63;;
71030;Laerm;63723;51.436;5.976;2023-04-03T00:17:25;61.01;59.91;61.82;;
71030;Laerm;63723;51.436;5.976;2023-04-03T00:17:35;60.01;57.18;61.86;;
71030;Laerm;63723;51.436;5.976;2023-04-03T00:17:45;58.85;56.83;61.57;;
71030;Laerm;63723;51.436;5.976;2023-04-03T00:17:56;59.41;56.84;61.90;;
71030;Laerm;63723;51.436;5.976;2023-04-03T00:18:07;59.57;56.78;61.93;;
71030;Laerm;63723;51.436;5.976;2023-04-03T00:18:17;58.50;55.98;60.26;;
71030;Laerm;63723;51.436;5.976;2023-04-03T00:18:28;60.67;57.92;61.68;;
71030;Laerm;63723;51.436;5.976;2023-04-03T00:18:38;60.01;56.67;61.90;;
71030;Laerm;63723;51.436;5.976;2023-04-03T00:18:49;59.23;55.94;61.79;;
71030;Laerm;63723;51.436;5.976;2023-04-03T00:18:59;60.72;59.43;61.77;;
71030;Laerm;63723;51.436;5.976;2023-04-03T00:19:10;60.38;56.20;61.75;;
71030;Laerm;63723;51.436;5.976;2023-04-03T00:19:21;60.24;56.63;61.54;;
71030;Laerm;63723;51.436;5.976;2023-04-03T00:19:32;59.81;56.75;61.66;;
71030;Laerm;63723;51.436;5.976;2023-04-03T00:19:42;58.20;56.47;59.71;;
71030;Laerm;63723;51.436;5.976;2023-04-03T00:19:52;58.26;56.26;59.76;;
71030;Laerm;63723;51.436;5.976;2023-04-03T00:20:03;59.04;55.99;61.45;;
71030;Laerm;63723;51.436;5.976;2023-04-03T00:20:13;58.47;56.15;61.30;;
71030;Laerm;63723;51.436;5.976;2023-04-03T00:20:24;60.96;59.99;61.85;;
71030;Laerm;63723;51.436;5.976;2023-04-03T00:20:35;60.77;57.17;61.98;;
71030;Laerm;63723;51.436;5.976;2023-04-03T00:20:45;60.72;57.39;61.93;;
71030;Laerm;63723;51.436;5.976;2023-04-03T00:20:55;60.85;58.46;61.81;;
71030;Laerm;63723;51.436;5.976;2023-04-03T00:21:06;61.03;60.11;62.04;;
71030;Laerm;63723;51.436;5.976;2023-04-03T00:21:16;60.18;56.79;62.12;;
71030;Laerm;63723;51.436;5.976;2023-04-03T00:21:26;59.01;56.70;60.87;;
71030;Laerm;63723;51.436;5.976;2023-04-03T00:21:37;60.70;57.15;61.71;;
71030;Laerm;63723;51.436;5.976;2023-04-03T00:21:47;59.37;57.20;62.30;;
71030;Laerm;63723;51.436;5.976;2023-04-03T00:21:58;58.71;56.56;60.62;;
71030;Laerm;63723;51.436;5.976;2023-04-03T00:22:08;59.46;56.40;61.65;;
71030;Laerm;63723;51.436;5.976;2023-04-03T00:22:18;59.20;56.61;61.74;;
71030;Laerm;63723;51.436;5.976;2023-04-03T00:22:28;60.63;57.79;61.70;;
71030;Laerm;63723;51.436;5.976;2023-04-03T00:22:39;59.74;56.95;61.53;;
71030;Laerm;63723;51.436;5.976;2023-04-03T00:22:49;60.32;56.71;62.01;;
71030;Laerm;63723;51.436;5.976;2023-04-03T00:23:00;58.41;56.42;60.26;;
71030;Laerm;63723;51.436;5.976;2023-04-03T00:23:11;59.20;57.09;61.74;;
71030;Laerm;63723;51.436;5.976;2023-04-03T00:23:21;61.04;59.73;62.27;;
71030;Laerm;63723;51.436;5.976;2023-04-03T00:23:33;60.33;57.61;62.21;;
71030;Laerm;63723;51.436;5.976;2023-04-03T00:23:47;60.26;56.54;62.23;;
71030;Laerm;63723;51.436;5.976;2023-04-03T00:23:57;59.02;57.50;60.54;;
71030;Laerm;63723;51.436;5.976;2023-04-03T00:24:07;60.88;57.50;62.40;;
71030;Laerm;63723;51.436;5.976;2023-04-03T00:24:17;61.32;58.70;62.38;;
71030;Laerm;63723;51.436;5.976;2023-04-03T00:24:28;60.43;58.30;62.53;;
71030;Laerm;63723;51.436;5.976;2023-04-03T00:24:38;61.45;60.34;62.24;;
71030;Laerm;63723;51.436;5.976;2023-04-03T00:24:48;60.10;57.30;62.35;;
71030;Laerm;63723;51.436;5.976;2023-04-03T00:24:58;60.92;57.45;62.73;;
71030;Laerm;63723;51.436;5.976;2023-04-03T00:25:09;59.68;57.77;61.51;;
71030;Laerm;63723;51.436;5.976;2023-04-03T00:25:19;59.54;57.75;62.09;;
71030;Laerm;63723;51.436;5.976;2023-04-03T00:25:29;59.51;57.62;60.95;;
71030;Laerm;63723;51.436;5.976;2023-04-03T00:25:40;61.04;58.19;62.45;;
71030;Laerm;63723;51.436;5.976;2023-04-03T00:25:50;60.76;57.95;62.15;;
71030;Laerm;63723;51.436;5.976;2023-04-03T00:26:00;60.13;58.22;61.93;;
71030;Laerm;63723;51.436;5.976;2023-04-03T00:26:11;60.53;58.27;62.04;;
71030;Laerm;63723;51.436;5.976;2023-04-03T00:26:21;59.86;57.89;61.30;;
71030;Laerm;63723;51.436;5.976;2023-04-03T00:26:31;60.75;57.86;62.71;;
71030;Laerm;63723;51.436;5.976;2023-04-03T00:26:42;61.11;58.72;62.37;;
71030;Laerm;63723;51.436;5.976;2023-04-03T00:26:52;61.00;59.83;62.32;;
71030;Laerm;63723;51.436;5.976;2023-04-03T00:27:02;60.94;59.95;62.21;;
71030;Laerm;63723;51.436;5.976;2023-04-03T00:27:13;60.76;57.81;62.06;;
71030;Laerm;63723;51.436;5.976;2023-04-03T00:27:23;60.94;58.92;62.24;;
71030;Laerm;63723;51.436;5.976;2023-04-03T00:27:35;60.82;59.84;61.90;;
71030;Laerm;63723;51.436;5.976;2023-04-03T00:27:45;60.97;59.93;61.97;;
71030;Laerm;63723;51.436;5.976;2023-04-03T00:27:55;60.91;59.99;61.94;;
71030;Laerm;63723;51.436;5.976;2023-04-03T00:28:06;60.89;59.35;62.00;;
71030;Laerm;63723;51.436;5.976;2023-04-03T00:28:16;61.01;60.16;61.93;;
71030;Laerm;63723;51.436;5.976;2023-04-03T00:28:26;61.32;60.31;62.32;;
71030;Laerm;63723;51.436;5.976;2023-04-03T00:28:36;61.11;59.91;62.66;;
71030;Laerm;63723;51.436;5.976;2023-04-03T00:28:47;59.71;57.76;62.04;;
71030;Laerm;63723;51.436;5.976;2023-04-03T00:28:57;60.84;58.67;61.96;;
71030;Laerm;63723;51.436;5.976;2023-04-03T00:29:07;61.06;59.43;62.30;;
71030;Laerm;63723;51.436;5.976;2023-04-03T00:29:18;61.39;60.35;62.33;;
71030;Laerm;63723;51.436;5.976;2023-04-03T00:29:28;61.19;59.98;62.38;;
71030;Laerm;63723;51.436;5.976;2023-04-03T00:29:38;61.19;59.48;62.20;;
71030;Laerm;63723;51.436;5.976;2023-04-03T00:29:48;61.34;59.70;62.26;;
71030;Laerm;63723;51.436;5.976;2023-04-03T00:29:58;60.04;57.71;62.35;;
71030;Laerm;63723;51.436;5.976;2023-04-03T00:30:10;61.18;58.05;62.25;;
71030;Laerm;63723;51.436;5.976;2023-04-03T00:30:21;61.29;59.86;62.58;;
71030;Laerm;63723;51.436;5.976;2023-04-03T00:30:31;61.09;59.88;62.13;;
71030;Laerm;63723;51.436;5.976;2023-04-03T00:30:42;59.86;58.00;61.89;;
71030;Laerm;63723;51.436;5.976;2023-04-03T00:30:52;60.16;58.00;61.82;;
71030;Laerm;63723;51.436;5.976;2023-04-03T00:31:02;59.71;56.41;61.65;;
71030;Laerm;63723;51.436;5.976;2023-04-03T00:31:14;59.82;58.01;62.35;;
71030;Laerm;63723;51.436;5.976;2023-04-03T00:31:24;60.02;57.60;62.08;;
71030;Laerm;63723;51.436;5.976;2023-04-03T00:31:35;60.75;58.18;62.15;;
71030;Laerm;63723;51.436;5.976;2023-04-03T00:31:45;59.36;57.77;60.72;;
71030;Laerm;63723;51.436;5.976;2023-04-03T00:31:55;61.23;58.30;63.05;;
71030;Laerm;63723;51.436;5.976;2023-04-03T00:32:06;60.67;58.45;63.34;;
71030;Laerm;63723;51.436;5.976;2023-04-03T00:32:16;61.64;60.31;63.10;;
71030;Laerm;63723;51.436;5.976;2023-04-03T00:32:26;61.58;60.62;63.02;;
71030;Laerm;63723;51.436;5.976;2023-04-03T00:32:36;61.77;60.45;63.33;;
71030;Laerm;63723;51.436;5.976;2023-04-03T00:32:47;61.62;60.19;63.10;;
71030;Laerm;63723;51.436;5.976;2023-04-03T00:32:58;61.81;60.92;63.04;;
71030;Laerm;63723;51.436;5.976;2023-04-03T00:33:10;61.43;57.74;63.36;;
71030;Laerm;63723;51.436;5.976;2023-04-03T00:33:21;60.74;58.29;62.87;;
71030;Laerm;63723;51.436;5.976;2023-04-03T00:33:31;61.84;60.57;63.38;;
71030;Laerm;63723;51.436;5.976;2023-04-03T00:33:42;61.69;58.94;63.33;;
71030;Laerm;63723;51.436;5.976;2023-04-03T00:33:52;60.06;58.60;61.43;;
71030;Laerm;63723;51.436;5.976;2023-04-03T00:34:02;60.14;58.66;61.58;;
71030;Laerm;63723;51.436;5.976;2023-04-03T00:34:12;60.13;58.27;61.47;;
71030;Laerm;63723;51.436;5.976;2023-04-03T00:34:23;60.59;58.37;62.72;;
71030;Laerm;63723;51.436;5.976;2023-04-03T00:34:33;62.20;61.10;63.42;;
71030;Laerm;63723;51.436;5.976;2023-04-03T00:34:43;62.02;59.07;63.37;;
71030;Laerm;63723;51.436;5.976;2023-04-03T00:34:53;61.16;58.94;63.68;;
71030;Laerm;63723;51.436;5.976;2023-04-03T00:35:04;62.13;59.49;63.71;;
71030;Laerm;63723;51.436;5.976;2023-04-03T00:35:15;62.30;59.80;63.54;;
71030;Laerm;63723;51.436;5.976;2023-04-03T00:35:28;62.33;61.36;63.39;;
71030;Laerm;63723;51.436;5.976;2023-04-03T00:35:38;62.44;61.31;63.62;;
71030;Laerm;63723;51.436;5.976;2023-04-03T00:35:49;62.28;61.47;63.27;;
71030;Laerm;63723;51.436;5.976;2023-04-03T00:35:59;62.39;61.44;63.18;;
71030;Laerm;63723;51.436;5.976;2023-04-03T00:36:10;61.44;59.37;63.05;;
71030;Laerm;63723;51.436;5.976;2023-04-03T00:36:20;62.22;61.11;63.32;;
71030;Laerm;63723;51.436;5.976;2023-04-03T00:36:31;62.08;58.46;63.84;;
71030;Laerm;63723;51.436;5.976;2023-04-03T00:36:41;61.49;59.23;63.54;;
71030;Laerm;63723;51.436;5.976;2023-04-03T00:36:51;62.60;59.58;63.89;;
71030;Laerm;63723;51.436;5.976;2023-04-03T00:37:01;61.14;58.95;62.48;;
71030;Laerm;63723;51.436;5.976;2023-04-03T00:37:12;61.35;59.46;63.46;;
71030;Laerm;63723;51.436;5.976;2023-04-03T00:37:22;61.37;59.52;63.42;;
71030;Laerm;63723;51.436;5.976;2023-04-03T00:37:32;62.01;58.81;63.63;;
71030;Laerm;63723;51.436;5.976;2023-04-03T00:37:43;62.71;61.99;63.53;;
71030;Laerm;63723;51.436;5.976;2023-04-03T00:37:55;62.78;61.85;63.61;;
71030;Laerm;63723;51.436;5.976;2023-04-03T00:38:05;61.95;59.76;63.95;;
71030;Laerm;63723;51.436;5.976;2023-04-03T00:38:15;62.40;60.09;63.67;;
71030;Laerm;63723;51.436;5.976;2023-04-03T00:38:26;62.87;61.95;63.61;;
71030;Laerm;63723;51.436;5.976;2023-04-03T00:38:36;62.72;61.75;63.57;;
71030;Laerm;63723;51.436;5.976;2023-04-03T00:38:46;62.28;59.48;63.62;;
71030;Laerm;63723;51.436;5.976;2023-04-03T00:38:56;62.86;61.93;63.86;;
71030;Laerm;63723;51.436;5.976;2023-04-03T00:39:07;62.77;61.83;63.80;;
71030;Laerm;63723;51.436;5.976;2023-04-03T00:39:17;62.53;59.62;63.59;;
71030;Laerm;63723;51.436;5.976;2023-04-03T00:39:28;62.28;59.79;63.41;;
71030;Laerm;63723;51.436;5.976;2023-04-03T00:39:38;62.52;59.88;63.37;;
71030;Laerm;63723;51.436;5.976;2023-04-03T00:39:49;61.86;59.00;63.58;;
71030;Laerm;63723;51.436;5.976;2023-04-03T00:39:59;61.59;59.64;63.22;;
71030;Laerm;63723;51.436;5.976;2023-04-03T00:40:10;61.49;58.99;63.28;;
71030;Laerm;63723;51.436;5.976;2023-04-03T00:40:25;62.77;61.92;63.63;;
71030;Laerm;63723;51.436;5.976;2023-04-03T00:40:37;62.75;61.71;63.60;;
71030;Laerm;63723;51.436;5.976;2023-04-03T00:40:47;62.72;61.66;63.50;;
71030;Laerm;63723;51.436;5.976;2023-04-03T00:40:58;62.73;61.74;63.42;;
71030;Laerm;63723;51.436;5.976;2023-04-03T00:41:08;62.70;61.81;63.46;;
71030;Laerm;63723;51.436;5.976;2023-04-03T00:41:18;62.63;61.76;63.40;;
71030;Laerm;63723;51.436;5.976;2023-04-03T00:41:29;62.04;59.73;63.62;;
71030;Laerm;63723;51.436;5.976;2023-04-03T00:41:40;61.22;59.36;62.99;;
71030;Laerm;63723;51.436;5.976;2023-04-03T00:41:50;62.55;60.43;63.49;;
71030;Laerm;63723;51.436;5.976;2023-04-03T00:42:00;61.39;59.68;63.31;;
71030;Laerm;63723;51.436;5.976;2023-04-03T00:42:10;62.61;60.31;63.52;;
71030;Laerm;63723;51.436;5.976;2023-04-03T00:42:21;62.68;61.60;63.43;;
71030;Laerm;63723;51.436;5.976;2023-04-03T00:42:31;62.70;61.79;63.57;;
71030;Laerm;63723;51.436;5.976;2023-04-03T00:42:42;62.88;62.08;63.82;;
71030;Laerm;63723;51.436;5.976;2023-04-03T00:42:56;63.02;62.01;64.05;;
71030;Laerm;63723;51.436;5.976;2023-04-03T00:43:11;62.89;61.27;63.88;;
71030;Laerm;63723;51.436;5.976;2023-04-03T00:43:23;62.02;58.96;63.78;;
71030;Laerm;63723;51.436;5.976;2023-04-03T00:43:34;62.40;59.96;63.58;;
71030;Laerm;63723;51.436;5.976;2023-04-03T00:43:44;61.93;60.27;63.65;;
71030;Laerm;63723;51.436;5.976;2023-04-03T00:43:55;61.57;59.28;63.02;;
71030;Laerm;63723;51.436;5.976;2023-04-03T00:44:21;61.69;59.25;63.56;;
71030;Laerm;63723;51.436;5.976;2023-04-03T00:45:35;60.66;58.60;62.13;;
71030;Laerm;63723;51.436;5.976;2023-04-03T00:45:47;60.72;58.88;63.32;;
71030;Laerm;63723;51.436;5.976;2023-04-03T00:45:58;60.53;58.84;62.54;;
71030;Laerm;63723;51.436;5.976;2023-04-03T00:46:08;60.58;58.74;62.06;;
71030;Laerm;63723;51.436;5.976;2023-04-03T00:46:19;60.69;59.20;62.29;;
71030;Laerm;63723;51.436;5.976;2023-04-03T00:46:29;62.13;59.22;63.75;;
71030;Laerm;63723;51.436;5.976;2023-04-03T00:46:40;61.62;59.02;63.77;;
71030;Laerm;63723;51.436;5.976;2023-04-03T00:46:50;60.40;58.54;62.42;;
71030;Laerm;63723;51.436;5.976;2023-04-03T00:47:01;61.57;59.46;62.88;;
71030;Laerm;63723;51.436;5.976;2023-04-03T00:47:14;60.70;58.41;62.74;;
71030;Laerm;63723;51.436;5.976;2023-04-03T00:47:25;60.42;58.76;62.15;;
71030;Laerm;63723;51.436;5.976;2023-04-03T00:47:37;60.32;58.77;62.62;;
71030;Laerm;63723;51.436;5.976;2023-04-03T00:47:49;60.71;58.35;63.59;;
71030;Laerm;63723;51.436;5.976;2023-04-03T00:48:00;61.83;59.28;63.67;;
71030;Laerm;63723;51.436;5.976;2023-04-03T00:48:15;61.92;60.58;63.05;;
71030;Laerm;63723;51.436;5.976;2023-04-03T00:48:38;62.00;60.39;63.11;;
71030;Laerm;63723;51.436;5.976;2023-04-03T00:48:50;60.41;57.84;63.00;;
71030;Laerm;63723;51.436;5.976;2023-04-03T00:49:00;61.42;58.30;63.29;;
71030;Laerm;63723;51.436;5.976;2023-04-03T00:49:10;62.14;60.87;63.22;;
71030;Laerm;63723;51.436;5.976;2023-04-03T00:49:20;62.20;60.84;63.32;;
71030;Laerm;63723;51.436;5.976;2023-04-03T00:49:31;60.50;57.68;63.12;;
71030;Laerm;63723;51.436;5.976;2023-04-03T00:49:41;59.09;57.36;61.81;;
71030;Laerm;63723;51.436;5.976;2023-04-03T00:49:52;59.65;56.77;62.79;;
71030;Laerm;63723;51.436;5.976;2023-04-03T00:50:03;61.99;61.01;62.97;;
71030;Laerm;63723;51.436;5.976;2023-04-03T00:50:14;61.80;60.06;63.02;;
71030;Laerm;63723;51.436;5.976;2023-04-03T00:50:25;61.09;59.53;62.31;;
71030;Laerm;63723;51.436;5.976;2023-04-03T00:50:36;61.07;59.13;62.18;;
71030;Laerm;63723;51.436;5.976;2023-04-03T00:50:47;61.65;59.53;62.95;;
71030;Laerm;63723;51.436;5.976;2023-04-03T00:50:58;61.98;60.78;62.97;;
71030;Laerm;63723;51.436;5.976;2023-04-03T00:51:09;61.77;59.59;62.86;;
71030;Laerm;63723;51.436;5.976;2023-04-03T00:51:22;59.88;55.36;63.05;;
71030;Laerm;63723;51.436;5.976;2023-04-03T00:51:33;57.90;55.54;60.73;;
71030;Laerm;63723;51.436;5.976;2023-04-03T00:51:45;57.52;54.98;60.42;;
71030;Laerm;63723;51.436;5.976;2023-04-03T00:51:55;60.05;55.75;63.31;;
71030;Laerm;63723;51.436;5.976;2023-04-03T00:52:07;57.35;55.05;60.28;;
71030;Laerm;63723;51.436;5.976;2023-04-03T00:52:20;59.91;55.11;63.42;;
71030;Laerm;63723;51.436;5.976;2023-04-03T00:52:31;61.46;55.68;63.18;;
71030;Laerm;63723;51.436;5.976;2023-04-03T00:52:42;59.71;55.20;62.90;;
71030;Laerm;63723;51.436;5.976;2023-04-03T00:52:52;60.09;54.64;62.93;;
71030;Laerm;63723;51.436;5.976;2023-04-03T00:53:03;57.52;54.83;59.93;;
71030;Laerm;63723;51.436;5.976;2023-04-03T00:53:17;57.39;54.92;60.99;;
71030;Laerm;63723;51.436;5.976;2023-04-03T00:53:33;57.54;54.36;61.10;;
71030;Laerm;63723;51.436;5.976;2023-04-03T00:53:47;59.10;54.70;63.10;;
71030;Laerm;63723;51.436;5.976;2023-04-03T00:53:59;60.59;55.40;63.42;;
71030;Laerm;63723;51.436;5.976;2023-04-03T00:54:10;61.02;55.47;63.56;;
71030;Laerm;63723;51.436;5.976;2023-04-03T00:54:21;59.06;55.87;62.84;;
71030;Laerm;63723;51.436;5.976;2023-04-03T00:54:32;58.23;55.19;61.59;;
71030;Laerm;63723;51.436;5.976;2023-04-03T00:54:42;58.55;55.22;61.88;;
71030;Laerm;63723;51.436;5.976;2023-04-03T00:54:54;60.34;56.06;62.05;;
71030;Laerm;63723;51.436;5.976;2023-04-03T00:55:06;60.58;55.96;61.70;;
71030;Laerm;63723;51.436;5.976;2023-04-03T00:55:17;57.88;55.79;59.52;;
71030;Laerm;63723;51.436;5.976;2023-04-03T00:55:27;57.93;55.64;59.59;;
71030;Laerm;63723;51.436;5.976;2023-04-03T00:55:39;59.32;56.70;62.02;;
71030;Laerm;63723;51.436;5.976;2023-04-03T00:55:49;59.13;56.56;61.31;;
71030;Laerm;63723;51.436;5.976;2023-04-03T00:56:00;60.56;59.04;61.51;;
71030;Laerm;63723;51.436;5.976;2023-04-03T00:56:12;58.97;57.33;61.23;;
71030;Laerm;63723;51.436;5.976;2023-04-03T00:56:23;60.47;57.69;62.44;;
71030;Laerm;63723;51.436;5.976;2023-04-03T00:56:35;59.99;57.07;61.60;;
71030;Laerm;63723;51.436;5.976;2023-04-03T00:56:46;58.41;56.86;60.32;;
71030;Laerm;63723;51.436;5.976;2023-04-03T00:56:56;60.05;59.00;60.97;;
71030;Laerm;63723;51.436;5.976;2023-04-03T00:57:07;59.52;57.00;60.79;;
71030;Laerm;63723;51.436;5.976;2023-04-03T00:57:18;60.06;59.00;61.01;;
71030;Laerm;63723;51.436;5.976;2023-04-03T00:57:28;59.94;58.67;60.93;;
71030;Laerm;63723;51.436;5.976;2023-04-03T00:57:40;59.31;57.69;61.07;;
71030;Laerm;63723;51.436;5.976;2023-04-03T00:57:51;59.01;57.07;60.45;;
71030;Laerm;63723;51.436;5.976;2023-04-03T00:58:02;59.95;57.85;61.30;;
71030;Laerm;63723;51.436;5.976;2023-04-03T00:58:13;60.11;58.93;61.19;;
71030;Laerm;63723;51.436;5.976;2023-04-03T00:58:31;59.67;57.86;61.47;;
71030;Laerm;63723;51.436;5.976;2023-04-03T00:58:54;59.74;57.67;61.17;;
71030;Laerm;63723;51.436;5.976;2023-04-03T00:59:10;58.58;57.01;59.84;;
71030;Laerm;63723;51.436;5.976;2023-04-03T00:59:22;59.66;56.83;61.47;;
71030;Laerm;63723;51.436;5.976;2023-04-03T00:59:37;59.66;57.27;61.96;;
71030;Laerm;63723;51.436;5.976;2023-04-03T00:59:49;58.66;57.13;60.69;;
71030;Laerm;63723;51.436;5.976;2023-04-03T01:00:05;59.32;56.89;62.05;;
71030;Laerm;63723;51.436;5.976;2023-04-03T01:00:18;59.15;56.89;61.15;;
71030;Laerm;63723;51.436;5.976;2023-04-03T01:00:30;59.70;57.09;61.26;;
71030;Laerm;63723;51.436;5.976;2023-04-03T01:00:40;59.39;57.43;61.45;;
71030;Laerm;63723;51.436;5.976;2023-04-03T01:00:54;59.96;57.14;61.38;;
71030;Laerm;63723;51.436;5.976;2023-04-03T01:01:08;59.42;56.96;61.55;;
71030;Laerm;63723;51.436;5.976;2023-04-03T01:01:24;60.42;57.75;61.96;;
71030;Laerm;63723;51.436;5.976;2023-04-03T01:01:35;60.50;58.70;61.83;;
71030;Laerm;63723;51.436;5.976;2023-04-03T01:01:45;60.60;58.97;61.85;;
71030;Laerm;63723;51.436;5.976;2023-04-03T01:01:56;61.05;59.01;61.95;;
71030;Laerm;63723;51.436;5.976;2023-04-03T01:02:06;60.81;58.28;62.18;;